Time;durP1;ratioP1;P1;durP2;ratioP2;P2;SDS_P1;SDS_P2;PMS_P1;PMS_P2;Temp;Humidity;BMP_temperature;BMP_pressure;BME280_temperature;BME280_humidity;BME280_pressure;Samples;Min_cycle;Max_cycle;Signal;HPM_P1;HPM_P2
2021/11/22 00:02:19;;;;;;;3.80;1.93;;;3.60;89.80;;;;;;5053629;28;20179;-84
2021/11/22 00:04:45;;;;;;;3.93;1.50;;;3.60;89.80;;;;;;5054403;28;20588;-83
2021/11/22 00:07:12;;;;;;;3.53;1.67;;;3.50;89.90;;;;;;5035962;28;20201;-84
2021/11/22 00:09:38;;;;;;;2.10;1.37;;;3.40;89.70;;;;;;5036000;28;20705;-83
2021/11/22 00:12:04;;;;;;;10.10;1.80;;;3.40;89.90;;;;;;5035683;28;20649;-83
2021/11/22 00:14:30;;;;;;;4.70;1.40;;;3.40;90.00;;;;;;5035616;28;20186;-84
2021/11/22 00:16:57;;;;;;;2.37;1.47;;;3.40;90.00;;;;;;5053938;28;20193;-83
2021/11/22 00:19:23;;;;;;;3.20;1.30;;;3.40;89.90;;;;;;5053638;28;20207;-83
2021/11/22 00:21:49;;;;;;;3.93;1.47;;;3.40;89.90;;;;;;5037959;28;20172;-84
2021/11/22 00:24:14;;;;;;;2.30;1.57;;;3.50;89.90;;;;;;5056102;28;20170;-83
2021/11/22 00:26:40;;;;;;;2.33;1.50;;;3.40;89.90;;;;;;5036552;28;20638;-83
2021/11/22 00:29:06;;;;;;;4.33;1.83;;;3.40;89.90;;;;;;5055064;28;20169;-84
2021/11/22 00:31:31;;;;;;;2.07;1.50;;;3.30;89.90;;;;;;5054373;28;20572;-84
2021/11/22 00:33:58;;;;;;;3.30;1.67;;;3.30;90.00;;;;;;5053825;28;20224;-84
2021/11/22 00:36:23;;;;;;;3.23;2.00;;;3.30;90.00;;;;;;5054939;28;20243;-84
2021/11/22 00:38:49;;;;;;;2.43;1.60;;;3.30;89.90;;;;;;5055016;28;20246;-83
2021/11/22 00:41:15;;;;;;;2.80;1.70;;;3.20;89.70;;;;;;5055369;28;20288;-83
2021/11/22 00:43:40;;;;;;;2.00;1.50;;;3.10;89.80;;;;;;5058413;28;20181;-84
2021/11/22 00:46:07;;;;;;;4.23;1.60;;;3.00;89.80;;;;;;5040511;28;20179;-84
2021/11/22 00:48:35;;;;;;;3.97;1.77;;;3.00;89.90;;;;;;5040154;28;20196;-84
2021/11/22 00:51:01;;;;;;;3.40;1.73;;;3.00;89.90;;;;;;5040718;28;20180;-84
2021/11/22 00:53:29;;;;;;;3.57;1.63;;;3.00;90.00;;;;;;5057499;28;20177;-83
2021/11/22 00:55:55;;;;;;;4.53;1.50;;;3.00;90.10;;;;;;5059183;28;20169;-83
2021/11/22 00:58:21;;;;;;;3.67;1.67;;;3.00;90.20;;;;;;5059339;28;20204;-83
2021/11/22 01:00:47;;;;;;;8.10;1.80;;;3.10;90.30;;;;;;5059178;28;20208;-83
2021/11/22 01:03:13;;;;;;;3.30;1.93;;;3.20;90.30;;;;;;5041050;28;20176;-83
2021/11/22 01:05:38;;;;;;;3.00;1.50;;;3.20;90.20;;;;;;5059342;28;20169;-83
2021/11/22 01:08:04;;;;;;;6.73;1.80;;;3.20;90.40;;;;;;5040551;28;20224;-83
2021/11/22 01:10:31;;;;;;;4.93;2.67;;;3.20;90.50;;;;;;5057890;28;20196;-84
2021/11/22 01:12:56;;;;;;;2.17;1.47;;;3.30;90.40;;;;;;5057319;28;20196;-83
2021/11/22 01:15:23;;;;;;;4.97;1.60;;;3.20;90.40;;;;;;5039025;28;20183;-83
2021/11/22 01:17:52;;;;;;;5.17;1.73;;;3.20;90.50;;;;;;5039590;28;20230;-83
2021/11/22 01:20:21;;;;;;;5.07;1.80;;;3.20;90.40;;;;;;5057552;28;20206;-83
2021/11/22 01:22:47;;;;;;;5.83;1.60;;;3.20;90.40;;;;;;5039122;28;20203;-84
2021/11/22 01:25:14;;;;;;;3.67;1.47;;;3.20;90.30;;;;;;5039097;28;20194;-84
2021/11/22 01:27:40;;;;;;;4.40;1.50;;;3.10;90.30;;;;;;5039387;28;20201;-83
2021/11/22 01:30:11;;;;;;;2.97;1.60;;;3.00;90.40;;;;;;5057333;28;20177;-83
2021/11/22 01:32:38;;;;;;;2.87;1.40;;;3.00;90.50;;;;;;5039808;28;20168;-83
2021/11/22 01:35:04;;;;;;;5.50;1.60;;;3.00;90.50;;;;;;5038680;28;20188;-83
2021/11/22 01:37:30;;;;;;;7.53;1.70;;;3.00;90.50;;;;;;5056844;28;20218;-83
2021/11/22 01:39:56;;;;;;;5.57;1.70;;;3.00;90.60;;;;;;5056123;28;20200;-83
2021/11/22 01:42:21;;;;;;;4.47;1.63;;;3.00;90.60;;;;;;5038723;28;20184;-82
2021/11/22 01:44:47;;;;;;;4.30;1.77;;;3.10;90.50;;;;;;5038893;28;20210;-83
2021/11/22 01:47:12;;;;;;;4.17;1.60;;;3.10;90.50;;;;;;5056911;28;20584;-83
2021/11/22 01:49:38;;;;;;;4.63;1.90;;;3.10;90.50;;;;;;5038082;28;20186;-82
2021/11/22 01:52:04;;;;;;;5.23;2.00;;;3.10;90.40;;;;;;5039095;28;20179;-83
2021/11/22 01:54:30;;;;;;;1.90;1.30;;;3.10;90.40;;;;;;5038293;28;20188;-83
2021/11/22 01:56:58;;;;;;;6.33;1.80;;;3.10;90.20;;;;;;5038479;28;20198;-83
2021/11/22 01:59:23;;;;;;;8.60;1.70;;;3.00;90.10;;;;;;5056410;28;20688;-84
2021/11/22 02:01:49;;;;;;;6.83;1.80;;;3.00;90.20;;;;;;5057288;28;20171;-83
2021/11/22 02:04:15;;;;;;;3.07;1.77;;;3.10;90.30;;;;;;5037980;28;20174;-83
2021/11/22 02:06:41;;;;;;;2.13;1.70;;;3.10;90.20;;;;;;5038054;28;20637;-83
2021/11/22 02:09:08;;;;;;;5.93;1.83;;;3.10;90.20;;;;;;5038177;28;20173;-84
2021/11/22 02:11:34;;;;;;;2.60;1.60;;;3.00;90.20;;;;;;5038308;28;20176;-84
2021/11/22 02:14:01;;;;;;;2.03;1.60;;;3.00;90.20;;;;;;5055862;28;20633;-83
2021/11/22 02:16:27;;;;;;;4.97;2.00;;;3.00;90.20;;;;;;5055736;28;20172;-83
2021/11/22 02:18:55;;;;;;;6.43;2.03;;;2.90;90.10;;;;;;5055392;28;20189;-84
2021/11/22 02:21:20;;;;;;;6.63;1.73;;;2.90;90.10;;;;;;5055759;28;20201;-83
2021/11/22 02:23:46;;;;;;;9.10;1.80;;;2.90;90.20;;;;;;5055750;28;20175;-83
2021/11/22 02:26:12;;;;;;;6.67;1.67;;;2.80;90.00;;;;;;5055829;28;20181;-83
2021/11/22 02:28:38;;;;;;;5.47;2.07;;;2.80;90.00;;;;;;5055437;28;20196;-83
2021/11/22 02:31:03;;;;;;;9.60;2.13;;;2.80;90.20;;;;;;5055547;28;20243;-83
2021/11/22 02:33:29;;;;;;;16.17;2.73;;;2.70;90.40;;;;;;5055497;28;20175;-83
2021/11/22 02:35:58;;;;;;;5.60;2.33;;;2.80;90.60;;;;;;5055343;28;20707;-83
2021/11/22 02:38:30;;;;;;;4.83;2.40;;;2.80;90.70;;;;;;5054745;28;20219;-83
2021/11/22 02:40:56;;;;;;;6.63;2.20;;;2.80;90.70;;;;;;5036579;28;20212;-83
2021/11/22 02:43:23;;;;;;;4.93;2.27;;;2.80;90.70;;;;;;5054610;28;20589;-83
2021/11/22 02:45:49;;;;;;;5.10;2.33;;;2.80;90.70;;;;;;5054950;28;20222;-83
2021/11/22 02:48:15;;;;;;;4.07;2.00;;;2.70;90.70;;;;;;5054986;28;20195;-84
2021/11/22 02:50:41;;;;;;;3.50;2.33;;;2.70;90.70;;;;;;5037013;28;20203;-83
2021/11/22 02:53:07;;;;;;;5.27;2.87;;;2.60;90.80;;;;;;5054886;28;20209;-83
2021/11/22 02:55:33;;;;;;;3.73;2.67;;;2.60;90.90;;;;;;5036858;28;20180;-83
2021/11/22 02:57:58;;;;;;;6.87;2.50;;;2.60;90.90;;;;;;5054396;28;20674;-83
2021/11/22 03:00:27;;;;;;;4.50;2.30;;;2.70;91.10;;;;;;5054596;28;20621;-83
2021/11/22 03:02:53;;;;;;;5.13;2.50;;;2.70;91.00;;;;;;5036682;28;20176;-83
2021/11/22 03:05:20;;;;;;;4.40;2.30;;;2.70;91.00;;;;;;5054005;28;20172;-83
2021/11/22 03:07:47;;;;;;;4.33;2.53;;;2.70;90.90;;;;;;5054162;28;20211;-83
2021/11/22 03:10:15;;;;;;;5.37;2.40;;;2.70;90.80;;;;;;5054635;28;20172;-83
2021/11/22 03:12:41;;;;;;;6.07;2.40;;;2.70;90.80;;;;;;5036431;28;20184;-83
2021/11/22 03:15:12;;;;;;;8.03;2.47;;;2.70;90.80;;;;;;5054576;28;20575;-84
2021/11/22 03:17:38;;;;;;;3.83;2.67;;;2.60;90.70;;;;;;5036442;28;20284;-83
2021/11/22 03:20:06;;;;;;;5.87;2.60;;;2.60;90.60;;;;;;5036078;28;20207;-83
2021/11/22 03:22:32;;;;;;;3.07;2.23;;;2.60;90.60;;;;;;5035998;28;20184;-82
2021/11/22 03:24:58;;;;;;;6.53;2.57;;;2.60;90.60;;;;;;5036398;28;20184;-84
2021/11/22 03:27:24;;;;;;;3.20;2.30;;;2.50;90.50;;;;;;5054267;28;20200;-84
2021/11/22 03:29:49;;;;;;;3.37;2.10;;;2.50;90.50;;;;;;5054264;28;20203;-83
2021/11/22 03:32:15;;;;;;;4.13;2.30;;;2.40;90.50;;;;;;5054410;28;20195;-82
2021/11/22 03:34:41;;;;;;;5.73;2.37;;;2.40;90.40;;;;;;5053877;28;20322;-82
2021/11/22 03:37:07;;;;;;;5.53;2.23;;;2.30;90.40;;;;;;5035678;28;20218;-82
2021/11/22 03:39:33;;;;;;;4.50;2.37;;;2.30;90.30;;;;;;5038367;28;20211;-86
2021/11/22 03:42:03;;;;;;;4.03;2.50;;;2.30;90.20;;;;;;5060076;28;20548;-84
2021/11/22 03:44:29;;;;;;;5.43;2.50;;;2.30;90.20;;;;;;5042162;28;20177;-85
2021/11/22 03:46:55;;;;;;;3.90;2.57;;;2.30;90.20;;;;;;5059995;28;20196;-86
2021/11/22 03:49:22;;;;;;;3.23;2.47;;;2.30;90.20;;;;;;5059663;28;20203;-86
2021/11/22 03:51:48;;;;;;;3.30;2.47;;;2.30;90.20;;;;;;5059931;28;20647;-85
2021/11/22 03:54:15;;;;;;;4.47;2.90;;;2.20;90.20;;;;;;5058565;28;20180;-86
2021/11/22 03:56:41;;;;;;;6.10;3.00;;;2.20;90.20;;;;;;5059529;28;20161;-86
2021/11/22 03:59:08;;;;;;;7.83;2.73;;;2.20;90.20;;;;;;5040178;28;20268;-85
2021/11/22 04:01:34;;;;;;;2.97;2.50;;;2.10;90.10;;;;;;5055790;28;20180;-83
2021/11/22 04:04:00;;;;;;;3.87;2.50;;;2.10;90.20;;;;;;5055661;28;20183;-83
2021/11/22 04:06:26;;;;;;;3.03;2.10;;;2.10;90.20;;;;;;5056032;28;20177;-83
2021/11/22 04:08:52;;;;;;;3.87;2.43;;;2.10;90.10;;;;;;5036982;28;20206;-83
2021/11/22 04:11:19;;;;;;;4.30;2.73;;;2.10;90.10;;;;;;5038554;28;20180;-84
2021/11/22 04:13:44;;;;;;;7.10;3.07;;;2.10;90.00;;;;;;5038411;28;20720;-84
2021/11/22 04:16:11;;;;;;;4.47;2.60;;;2.10;90.00;;;;;;5054773;28;20266;-83
2021/11/22 04:18:37;;;;;;;7.93;2.47;;;2.10;90.00;;;;;;5040121;28;20200;-83
2021/11/22 04:21:03;;;;;;;7.20;2.73;;;2.10;90.00;;;;;;5041273;28;20631;-84
2021/11/22 04:23:29;;;;;;;7.20;2.90;;;2.10;89.90;;;;;;5059319;28;20176;-83
2021/11/22 04:25:55;;;;;;;5.43;2.57;;;2.00;89.90;;;;;;5040982;28;20233;-83
2021/11/22 04:28:21;;;;;;;7.23;3.00;;;2.10;89.90;;;;;;5058451;28;20192;-83
2021/11/22 04:30:46;;;;;;;3.77;2.93;;;2.00;89.90;;;;;;5040171;28;20215;-83
2021/11/22 04:33:12;;;;;;;6.87;2.67;;;2.00;89.90;;;;;;5041391;28;20207;-84
2021/11/22 04:35:38;;;;;;;5.83;2.97;;;2.00;89.90;;;;;;5039989;28;20180;-84
2021/11/22 04:38:04;;;;;;;5.00;2.97;;;2.00;89.90;;;;;;5059059;28;20211;-84
2021/11/22 04:40:30;;;;;;;4.13;2.77;;;2.00;89.80;;;;;;5058485;28;20730;-83
2021/11/22 04:42:56;;;;;;;5.23;3.07;;;2.00;89.90;;;;;;5058747;28;20164;-84
2021/11/22 04:45:28;;;;;;;3.33;2.63;;;2.00;89.90;;;;;;5040932;28;20259;-84
2021/11/22 04:47:56;;;;;;;6.83;3.43;;;2.00;89.90;;;;;;5040814;28;20199;-83
2021/11/22 04:50:22;;;;;;;6.57;3.70;;;2.10;90.00;;;;;;5058878;28;20172;-85
2021/11/22 04:52:48;;;;;;;6.50;2.80;;;2.10;89.90;;;;;;5058559;28;20179;-83
2021/11/22 04:55:15;;;;;;;5.00;2.97;;;2.10;89.90;;;;;;5058294;28;20728;-83
2021/11/22 04:57:42;;;;;;;7.40;3.67;;;1.90;89.70;;;;;;5040332;28;20224;-83
2021/11/22 05:00:09;;;;;;;9.17;3.40;;;1.90;89.80;;;;;;5040623;28;20206;-83
2021/11/22 05:02:34;;;;;;;6.87;3.60;;;1.90;89.90;;;;;;5040974;28;20263;-84
2021/11/22 05:05:00;;;;;;;5.70;3.27;;;1.90;89.80;;;;;;5040023;28;20207;-84
2021/11/22 05:07:26;;;;;;;6.13;3.47;;;1.90;89.90;;;;;;5038661;28;20746;-84
2021/11/22 05:09:52;;;;;;;5.93;3.60;;;1.90;89.90;;;;;;5039723;28;20267;-83
2021/11/22 05:12:17;;;;;;;4.70;3.20;;;1.80;89.90;;;;;;5040041;28;20279;-84
2021/11/22 05:14:45;;;;;;;5.07;3.50;;;1.80;89.80;;;;;;5058549;28;20268;-83
2021/11/22 05:17:10;;;;;;;7.53;3.77;;;1.70;89.80;;;;;;5056694;28;20200;-84
2021/11/22 05:19:36;;;;;;;6.27;3.37;;;1.70;89.80;;;;;;5057220;28;20203;-83
2021/11/22 05:22:03;;;;;;;8.53;3.60;;;1.70;89.80;;;;;;5056609;28;20172;-83
2021/11/22 05:24:29;;;;;;;5.63;3.37;;;1.70;89.80;;;;;;5038477;28;20176;-83
2021/11/22 05:26:56;;;;;;;5.90;3.47;;;1.70;89.80;;;;;;5038268;28;20203;-84
2021/11/22 05:29:22;;;;;;;4.33;3.33;;;1.60;89.90;;;;;;5037700;28;20184;-84
2021/11/22 05:31:48;;;;;;;7.13;5.43;;;1.60;89.80;;;;;;5038497;28;20180;-84
2021/11/22 05:34:17;;;;;;;6.07;3.80;;;1.60;89.70;;;;;;5057281;28;20184;-83
2021/11/22 05:36:42;;;;;;;4.13;3.50;;;1.60;89.70;;;;;;5056084;28;20171;-83
2021/11/22 05:39:09;;;;;;;8.23;3.17;;;1.60;89.60;;;;;;5097693;22;20242;-88
2021/11/22 05:41:35;;;;;;;4.50;3.30;;;1.50;89.60;;;;;;5057403;28;20203;-89
2021/11/22 05:44:01;;;;;;;7.20;3.80;;;1.50;89.60;;;;;;5057411;28;20700;-88
2021/11/22 05:46:27;;;;;;;5.13;3.20;;;1.50;89.60;;;;;;5075177;28;20176;-87
2021/11/22 05:48:52;;;;;;;9.07;4.03;;;1.40;89.60;;;;;;5075078;28;20666;-88
2021/11/22 05:51:19;;;;;;;3.67;3.30;;;1.30;89.60;;;;;;5075420;28;20172;-88
2021/11/22 05:53:49;;;;;;;7.53;3.43;;;1.30;89.90;;;;;;5057112;28;20171;-88
2021/11/22 05:56:17;;;;;;;5.67;3.53;;;1.30;90.00;;;;;;5074984;28;20255;-88
2021/11/22 05:58:44;;;;;;;6.97;3.40;;;1.30;90.00;;;;;;5075210;28;20187;-88
2021/11/22 06:01:10;;;;;;;6.50;3.93;;;1.30;89.90;;;;;;5056972;28;20195;-88
2021/11/22 06:03:36;;;;;;;6.53;4.00;;;1.20;89.90;;;;;;5075207;28;20527;-87
2021/11/22 06:06:02;;;;;;;4.97;3.80;;;1.20;90.00;;;;;;5075432;28;20166;-88
2021/11/22 06:08:28;;;;;;;4.73;3.90;;;1.30;90.00;;;;;;5074737;28;20186;-88
2021/11/22 06:10:54;;;;;;;4.47;4.03;;;1.30;90.00;;;;;;5056796;28;20601;-88
2021/11/22 06:13:21;;;;;;;7.97;3.93;;;1.30;89.90;;;;;;5075227;28;20164;-88
2021/11/22 06:15:47;;;;;;;11.43;5.23;;;1.30;89.90;;;;;;5074709;28;20172;-88
2021/11/22 06:18:14;;;;;;;8.00;4.20;;;1.30;89.90;;;;;;5074529;28;20188;-88
2021/11/22 06:20:40;;;;;;;6.50;3.97;;;1.30;89.70;;;;;;5074491;28;20198;-88
2021/11/22 06:23:07;;;;;;;7.33;3.90;;;1.30;89.70;;;;;;5074576;28;20167;-88
2021/11/22 06:25:33;;;;;;;6.07;4.23;;;1.30;89.70;;;;;;5056515;28;20636;-87
2021/11/22 06:27:59;;;;;;;4.80;4.30;;;1.30;89.70;;;;;;5074494;28;20192;-87
2021/11/22 06:30:25;;;;;;;7.33;4.30;;;1.30;89.80;;;;;;5074302;28;20197;-88
2021/11/22 06:32:53;;;;;;;7.57;4.67;;;1.30;89.80;;;;;;5056339;28;20179;-87
2021/11/22 06:35:19;;;;;;;11.13;4.73;;;1.30;89.90;;;;;;5074476;28;20167;-88
2021/11/22 06:37:46;;;;;;;12.27;5.33;;;1.30;90.10;;;;;;5074064;28;20209;-88
2021/11/22 06:40:12;;;;;;;13.17;5.63;;;1.40;90.30;;;;;;5055723;28;20223;-87
2021/11/22 06:42:38;;;;;;;10.30;4.93;;;1.40;90.40;;;;;;5056170;28;20190;-87
2021/11/22 06:45:06;;;;;;;17.00;4.63;;;1.40;90.30;;;;;;5056130;28;20182;-88
2021/11/22 06:47:32;;;;;;;8.67;4.30;;;1.40;90.30;;;;;;5055995;28;20324;-87
2021/11/22 06:49:59;;;;;;;6.77;4.33;;;1.40;90.30;;;;;;5056102;28;20178;-87
2021/11/22 06:52:25;;;;;;;8.87;5.00;;;1.30;90.20;;;;;;5073871;28;20203;-88
2021/11/22 06:54:52;;;;;;;12.20;4.37;;;1.30;90.00;;;;;;5073911;28;20213;-87
2021/11/22 06:57:19;;;;;;;9.40;4.67;;;1.20;90.10;;;;;;5073718;28;20175;-88
2021/11/22 06:59:45;;;;;;;11.27;5.17;;;1.20;90.10;;;;;;5055805;28;20208;-88
2021/11/22 07:02:16;;;;;;;7.10;4.20;;;1.10;90.00;;;;;;5073759;28;20171;-87
2021/11/22 07:04:43;;;;;;;11.07;4.60;;;1.10;90.00;;;;;;5073760;28;20148;-87
2021/11/22 07:07:09;;;;;;;8.10;4.40;;;1.00;90.10;;;;;;5073452;28;20647;-87
2021/11/22 07:09:35;;;;;;;11.63;4.03;;;1.00;90.10;;;;;;5073598;28;20220;-87
2021/11/22 07:12:01;;;;;;;8.23;4.30;;;1.00;90.10;;;;;;5073560;28;20289;-87
2021/11/22 07:14:27;;;;;;;5.50;4.23;;;1.00;90.10;;;;;;5055905;28;20182;-87
2021/11/22 07:16:53;;;;;;;8.53;3.80;;;0.90;90.00;;;;;;5073433;28;20168;-87
2021/11/22 07:19:20;;;;;;;5.93;4.07;;;0.90;90.00;;;;;;5055392;28;20232;-87
2021/11/22 07:21:46;;;;;;;6.33;4.80;;;0.90;90.00;;;;;;5073475;28;20171;-87
2021/11/22 07:24:12;;;;;;;4.53;4.03;;;0.90;90.10;;;;;;5055476;28;20180;-87
2021/11/22 07:26:38;;;;;;;6.73;4.57;;;0.90;90.10;;;;;;5073233;28;20178;-87
2021/11/22 07:29:04;;;;;;;7.50;3.77;;;0.90;90.00;;;;;;5055356;28;20682;-87
2021/11/22 07:31:31;;;;;;;7.40;3.90;;;0.90;90.00;;;;;;5055396;28;20179;-87
2021/11/22 07:33:56;;;;;;;6.43;3.70;;;0.90;90.00;;;;;;5055247;28;20174;-87
2021/11/22 07:36:22;;;;;;;6.20;3.93;;;0.90;89.90;;;;;;5073258;28;20178;-87
2021/11/22 07:38:49;;;;;;;8.57;3.87;;;0.90;89.80;;;;;;5073046;28;20208;-87
2021/11/22 07:41:15;;;;;;;6.10;4.23;;;0.90;89.80;;;;;;5055152;28;20204;-87
2021/11/22 07:43:40;;;;;;;8.33;3.97;;;0.90;89.80;;;;;;5073164;28;20168;-87
2021/11/22 07:46:06;;;;;;;9.23;4.37;;;0.90;89.70;;;;;;5073139;28;20167;-87
2021/11/22 07:48:32;;;;;;;9.83;4.30;;;0.80;89.70;;;;;;5073105;28;20186;-87
2021/11/22 07:50:58;;;;;;;5.83;4.63;;;0.80;89.70;;;;;;5055102;28;20194;-87
2021/11/22 07:53:25;;;;;;;11.07;4.93;;;0.80;90.10;;;;;;5055183;28;20684;-87
2021/11/22 07:55:50;;;;;;;8.57;4.37;;;0.80;90.30;;;;;;5073364;28;20581;-87
2021/11/22 07:58:16;;;;;;;5.33;4.00;;;0.80;90.40;;;;;;5072942;28;20197;-87
2021/11/22 08:00:42;;;;;;;5.53;4.40;;;0.90;90.50;;;;;;5073213;28;20720;-87
2021/11/22 08:03:07;;;;;;;5.50;4.20;;;0.90;90.50;;;;;;5054975;28;20192;-87
2021/11/22 08:05:33;;;;;;;6.40;4.07;;;0.90;90.40;;;;;;5073049;28;20171;-87
2021/11/22 08:08:02;;;;;;;14.13;4.20;;;0.90;90.40;;;;;;5055032;28;20197;-87
2021/11/22 08:10:29;;;;;;;10.17;4.50;;;0.90;90.40;;;;;;5055023;28;20261;-87
2021/11/22 08:13:04;;;;;;;6.70;4.13;;;0.90;90.50;;;;;;5054971;28;20549;-87
2021/11/22 08:15:32;;;;;;;6.13;4.57;;;1.00;90.60;;;;;;5072949;28;20174;-87
2021/11/22 08:18:00;;;;;;;8.23;5.37;;;1.00;91.10;;;;;;5072718;28;20205;-87
2021/11/22 08:20:26;;;;;;;10.23;5.20;;;1.20;91.70;;;;;;5054841;28;20284;-86
2021/11/22 08:22:52;;;;;;;10.50;4.90;;;1.20;91.80;;;;;;5054887;28;20176;-86
2021/11/22 08:25:22;;;;;;;9.57;4.47;;;1.20;91.90;;;;;;5072757;28;20195;-87
2021/11/22 08:27:49;;;;;;;9.77;5.13;;;1.30;91.90;;;;;;5054690;28;20282;-86
2021/11/22 08:30:17;;;;;;;13.30;5.23;;;1.30;91.90;;;;;;5055645;28;20590;-86
2021/11/22 08:32:45;;;;;;;6.43;4.23;;;1.30;91.90;;;;;;5072880;28;20176;-87
2021/11/22 08:35:12;;;;;;;9.17;4.80;;;1.30;91.90;;;;;;5072938;28;20179;-87
2021/11/22 08:37:39;;;;;;;11.57;4.57;;;1.30;91.90;;;;;;5054544;28;20229;-86
2021/11/22 08:40:09;;;;;;;5.93;4.77;;;1.40;92.00;;;;;;5054757;28;20276;-86
2021/11/22 08:42:35;;;;;;;11.37;6.77;;;1.30;92.00;;;;;;5054606;28;20248;-86
2021/11/22 08:45:01;;;;;;;6.67;4.30;;;1.50;92.10;;;;;;5072610;28;20229;-87
2021/11/22 08:47:28;;;;;;;9.80;4.40;;;1.50;92.10;;;;;;5072537;28;20197;-87
2021/11/22 08:49:54;;;;;;;6.63;4.27;;;1.50;92.20;;;;;;5072602;28;20183;-87
2021/11/22 08:52:21;;;;;;;7.77;4.20;;;1.60;92.30;;;;;;5072859;28;20702;-87
2021/11/22 08:54:47;;;;;;;8.47;5.00;;;1.60;92.20;;;;;;5072484;28;20196;-87
2021/11/22 08:57:13;;;;;;;12.07;5.40;;;1.80;92.50;;;;;;5072831;28;20176;-87
2021/11/22 08:59:40;;;;;;;8.83;4.93;;;2.00;92.60;;;;;;5072752;28;20182;-87
2021/11/22 09:02:06;;;;;;;15.03;5.13;;;1.90;92.50;;;;;;5054482;28;20182;-86
2021/11/22 09:04:32;;;;;;;7.70;4.87;;;2.00;92.60;;;;;;5057177;28;20183;-86
2021/11/22 09:06:58;;;;;;;5.13;4.50;;;2.10;92.70;;;;;;5076379;28;20167;-86
2021/11/22 09:09:23;;;;;;;8.83;5.10;;;2.20;92.70;;;;;;5057956;28;20233;-87
2021/11/22 09:11:49;;;;;;;8.63;4.47;;;2.20;92.70;;;;;;5076013;28;20250;-87
2021/11/22 09:14:15;;;;;;;10.20;4.83;;;2.20;92.60;;;;;;5057939;28;20713;-86
2021/11/22 09:16:42;;;;;;;7.43;4.30;;;2.30;92.70;;;;;;5076268;28;20579;-87
2021/11/22 09:19:08;;;;;;;9.07;4.23;;;2.40;92.70;;;;;;5075709;28;20224;-87
2021/11/22 09:21:34;;;;;;;12.77;5.30;;;2.50;92.60;;;;;;5075603;28;20274;-86
2021/11/22 09:24:02;;;;;;;6.07;4.77;;;2.60;92.60;;;;;;5076055;28;20707;-86
2021/11/22 09:26:27;;;;;;;9.03;3.77;;;2.80;92.60;;;;;;5075624;28;20631;-86
2021/11/22 09:28:54;;;;;;;7.53;4.07;;;2.90;92.60;;;;;;5075531;28;20184;-86
2021/11/22 09:31:20;;;;;;;5.33;3.37;;;2.90;92.50;;;;;;5057629;28;20207;-86
2021/11/22 09:33:47;;;;;;;8.17;4.00;;;3.00;92.50;;;;;;5075492;28;20222;-86
2021/11/22 09:36:14;;;;;;;5.93;3.87;;;3.20;92.50;;;;;;5057515;28;20722;-87
2021/11/22 09:38:40;;;;;;;8.97;3.33;;;3.20;92.20;;;;;;5075340;28;20253;-87
2021/11/22 09:41:06;;;;;;;5.47;3.03;;;3.20;92.00;;;;;;5057388;28;20389;-86
2021/11/22 09:43:32;;;;;;;8.47;3.30;;;3.10;91.70;;;;;;5075849;28;20704;-87
2021/11/22 09:45:59;;;;;;;6.07;3.13;;;3.20;91.50;;;;;;5075839;28;20169;-87
2021/11/22 09:48:25;;;;;;;4.40;3.07;;;3.30;91.50;;;;;;5075155;28;20196;-86
2021/11/22 09:50:51;;;;;;;8.07;3.27;;;3.50;91.70;;;;;;5057318;28;20179;-86
2021/11/22 09:53:16;;;;;;;10.07;3.73;;;3.60;91.60;;;;;;5075444;28;20245;-87
2021/11/22 09:55:42;;;;;;;8.10;3.73;;;3.70;91.70;;;;;;5057107;28;20176;-87
2021/11/22 09:58:10;;;;;;;13.40;3.30;;;4.00;91.70;;;;;;5057004;28;20200;-87
2021/11/22 10:00:47;;;;;;;8.13;3.53;;;4.40;91.90;;;;;;5074963;28;20602;-87
2021/11/22 10:03:21;;;;;;;7.60;3.70;;;4.50;91.40;;;;;;5057025;28;20172;-87
2021/11/22 10:05:53;;;;;;;8.47;3.47;;;4.60;91.20;;;;;;5074856;28;20168;-87
2021/11/22 10:08:22;;;;;;;8.40;3.70;;;4.50;90.80;;;;;;5075029;28;20557;-87
2021/11/22 10:10:54;;;;;;;10.90;3.97;;;4.50;90.70;;;;;;5075111;28;20170;-87
2021/11/22 10:13:38;;;;;;;10.90;4.03;;;4.50;90.80;;;;;;5056823;28;20171;-86
2021/11/22 10:16:15;;;;;;;7.17;4.10;;;4.60;90.70;;;;;;5055911;28;20215;-86
2021/11/22 10:18:46;;;;;;;10.20;4.70;;;4.80;91.00;;;;;;5074599;28;20786;-86
2021/11/22 10:21:14;;;;;;;6.27;4.30;;;5.10;91.00;;;;;;5074588;28;20203;-86
2021/11/22 10:23:43;;;;;;;4.23;3.37;;;5.20;90.30;;;;;;5056936;28;20245;-86
2021/11/22 10:26:14;;;;;;;9.77;3.83;;;5.30;90.10;;;;;;5074586;28;20538;-86
2021/11/22 10:28:46;;;;;;;10.27;3.20;;;5.50;89.90;;;;;;5056464;28;20284;-86
2021/11/22 10:31:18;;;;;;;7.80;4.13;;;5.60;88.60;;;;;;5056533;28;20178;-86
2021/11/22 10:33:46;;;;;;;8.53;3.63;;;5.90;88.30;;;;;;5056415;28;20185;-86
2021/11/22 10:36:15;;;;;;;10.73;3.60;;;5.90;88.30;;;;;;5074545;28;20170;-86
2021/11/22 10:38:48;;;;;;;8.47;3.57;;;6.20;88.50;;;;;;5056139;28;20215;-87
2021/11/22 10:41:35;;;;;;;7.40;3.60;;;6.20;87.70;;;;;;5056234;28;20198;-87
2021/11/22 10:44:05;;;;;;;8.70;3.80;;;6.10;87.40;;;;;;5074328;28;20231;-87
2021/11/22 10:46:39;;;;;;;10.63;4.10;;;6.30;87.90;;;;;;5074388;28;20148;-87
2021/11/22 10:49:13;;;;;;;5.53;3.33;;;6.50;87.10;;;;;;5074178;28;20198;-87
2021/11/22 10:51:46;;;;;;;9.20;4.17;;;6.30;84.90;;;;;;5074211;28;20151;-88
2021/11/22 10:54:20;;;;;;;8.60;3.30;;;6.30;85.10;;;;;;5056289;28;20170;-87
2021/11/22 10:56:50;;;;;;;3.77;3.30;;;6.50;84.40;;;;;;5074268;28;20162;-88
2021/11/22 10:59:22;;;;;;;6.30;3.07;;;6.90;85.10;;;;;;5074035;28;20191;-88
2021/11/22 11:01:48;;;;;;;3.47;2.47;;;6.70;83.40;;;;;;5056427;28;20714;-88
2021/11/22 11:04:30;;;;;;;5.40;2.80;;;6.50;81.50;;;;;;5056519;28;20177;-88
2021/11/22 11:06:58;;;;;;;4.60;2.30;;;6.60;83.40;;;;;;5056154;28;20163;-87
2021/11/22 11:09:27;;;;;;;5.77;3.40;;;6.50;81.50;;;;;;5056321;28;20241;-88
2021/11/22 11:12:00;;;;;;;5.17;2.73;;;6.50;82.70;;;;;;5074038;28;20715;-88
2021/11/22 11:14:26;;;;;;;4.80;2.60;;;6.60;81.60;;;;;;5074707;28;20193;-88
2021/11/22 11:16:54;;;;;;;5.20;2.70;;;6.40;82.20;;;;;;5074221;28;20171;-90
2021/11/22 11:19:19;;;;;;;6.60;2.60;;;6.50;82.30;;;;;;5056206;28;20568;-89
2021/11/22 11:21:48;;;;;;;6.93;2.30;;;6.60;82.10;;;;;;5056247;28;20290;-89
2021/11/22 11:24:17;;;;;;;3.90;2.40;;;6.90;83.60;;;;;;5056257;28;20175;-88
2021/11/22 11:26:45;;;;;;;5.63;2.50;;;7.10;82.70;;;;;;5073700;28;20167;-88
2021/11/22 11:29:11;;;;;;;11.17;2.73;;;7.10;81.90;;;;;;5055870;28;20602;-88
2021/11/22 11:31:39;;;;;;;5.63;2.20;;;7.30;81.70;;;;;;5073692;28;20175;-87
2021/11/22 11:34:10;;;;;;;5.53;2.20;;;7.40;80.70;;;;;;5055869;28;20190;-88
2021/11/22 11:37:14;;;;;;;3.93;2.47;;;7.70;80.30;;;;;;5073848;28;20160;-88
2021/11/22 11:40:17;;;;;;;6.00;2.70;;;7.50;79.50;;;;;;5055919;28;20730;-88
2021/11/22 11:43:05;;;;;;;3.30;1.87;;;7.60;81.40;;;;;;5056781;28;20232;-88
2021/11/22 11:45:31;;;;;;;5.20;1.87;;;7.70;82.00;;;;;;5074030;28;20172;-88
2021/11/22 11:48:13;;;;;;;10.47;2.07;;;7.70;79.00;;;;;;5055635;28;20218;-88
2021/11/22 11:50:43;;;;;;;4.80;2.13;;;7.80;80.70;;;;;;5074354;28;20156;-89
2021/11/22 11:53:12;;;;;;;4.10;2.03;;;7.90;79.40;;;;;;5073903;28;20147;-86
2021/11/22 11:55:38;;;;;;;7.50;3.07;;;7.80;78.40;;;;;;5055514;28;20207;-86
2021/11/22 11:58:26;;;;;;;2.60;1.80;;;8.10;78.10;;;;;;5073001;28;20191;-86
2021/11/22 12:01:15;;;;;;;3.50;1.63;;;8.10;77.50;;;;;;5055183;28;20222;-85
2021/11/22 12:04:07;;;;;;;3.53;1.70;;;7.90;78.50;;;;;;5055581;28;20163;-86
2021/11/22 12:06:51;;;;;;;2.93;1.60;;;7.60;76.30;;;;;;5073096;28;20168;-85
2021/11/22 12:09:26;;;;;;;2.87;1.90;;;7.20;75.80;;;;;;5055799;28;20237;-85
2021/11/22 12:11:52;;;;;;;4.57;1.67;;;7.10;76.30;;;;;;5072895;28;20169;-85
2021/11/22 12:14:56;;;;;;;4.97;1.80;;;7.20;77.70;;;;;;5072909;28;20164;-85
2021/11/22 12:17:34;;;;;;;1.77;1.37;;;7.10;77.90;;;;;;5054872;28;20568;-86
2021/11/22 12:20:08;;;;;;;7.13;1.53;;;7.10;79.10;;;;;;5054906;28;20195;-86
2021/11/22 12:22:42;;;;;;;4.73;1.80;;;6.90;78.40;;;;;;5072883;28;20281;-85
2021/11/22 12:25:29;;;;;;;2.37;1.30;;;6.90;79.60;;;;;;5054946;28;20164;-86
2021/11/22 12:27:55;;;;;;;9.10;1.77;;;6.70;78.70;;;;;;5054609;28;20195;-86
2021/11/22 12:30:29;;;;;;;10.03;1.87;;;6.70;79.30;;;;;;5073078;28;20178;-85
2021/11/22 12:33:20;;;;;;;7.03;1.93;;;6.90;80.20;;;;;;5054936;28;20228;-86
2021/11/22 12:35:48;;;;;;;6.07;2.30;;;7.30;80.60;;;;;;5025912;28;20183;-86
2021/11/22 12:38:18;;;;;;;2.97;1.90;;;7.40;79.60;;;;;;5073350;28;20215;-86
2021/11/22 12:40:46;;;;;;;6.97;1.93;;;7.50;79.10;;;;;;5058479;28;20210;-86
2021/11/22 12:43:11;;;;;;;2.73;1.63;;;7.40;79.10;;;;;;5058505;28;20172;-85
2021/11/22 12:45:57;;;;;;;7.53;1.90;;;7.30;78.50;;;;;;5059331;28;20174;-85
2021/11/22 12:48:38;;;;;;;4.03;1.80;;;7.30;79.90;;;;;;5058421;28;20608;-86
2021/11/22 12:51:07;;;;;;;6.23;1.70;;;7.40;77.60;;;;;;5058394;28;20193;-86
2021/11/22 12:53:34;;;;;;;4.63;1.33;;;7.60;79.00;;;;;;5058319;28;20182;-86
2021/11/22 12:56:01;;;;;;;2.13;1.40;;;7.60;77.20;;;;;;5076200;28;20182;-86
2021/11/22 12:58:29;;;;;;;6.33;1.77;;;7.30;76.30;;;;;;5076094;28;20195;-86
2021/11/22 13:00:57;;;;;;;1.97;1.57;;;7.30;77.00;;;;;;5058087;28;20244;-85